Terminal Aerodrome Forecast
Issued by NWS

Home | Current Version | Previous Version | Text Only | Print | Product List | Glossary On
Versions: 1 2 3 4 5 6 7 8 9 10 11 12 13 14 15 16 17
000
FTUS43 KAPX 202001 AAD
TAFPLN
TAF AMD
KPLN 202001Z 2020/2118 21015G21KT P6SM SKC WS015/23030KT
     FM210000 21006KT P6SM FEW250 WS015/23030KT
     FM210300 21006KT P6SM SKC WS017/23035KT
     FM211200 19006KT P6SM SCT200=

USA.gov is the U.S. government's official web portal to all federal, state and local government web resources and services.